sensor_id;sensor_type;location;lat;lon;timestamp;temperature;humidity
23089;DHT22;11713;48.506;8.966;2023-04-03T00:00:35;4.90;99.90
23089;DHT22;11713;48.506;8.966;2023-04-03T00:03:01;4.90;99.90
23089;DHT22;11713;48.506;8.966;2023-04-03T00:05:27;4.90;99.90
23089;DHT22;11713;48.506;8.966;2023-04-03T00:07:53;5.00;99.90
23089;DHT22;11713;48.506;8.966;2023-04-03T00:10:19;5.00;99.90
23089;DHT22;11713;48.506;8.966;2023-04-03T00:12:45;4.80;99.90
23089;DHT22;11713;48.506;8.966;2023-04-03T00:15:11;4.80;99.90
23089;DHT22;11713;48.506;8.966;2023-04-03T00:17:38;4.80;99.90
23089;DHT22;11713;48.506;8.966;2023-04-03T00:20:04;4.80;99.90
23089;DHT22;11713;48.506;8.966;2023-04-03T00:22:31;4.80;99.90
23089;DHT22;11713;48.506;8.966;2023-04-03T00:24:57;4.80;99.90
23089;DHT22;11713;48.506;8.966;2023-04-03T00:27:23;4.80;99.90
23089;DHT22;11713;48.506;8.966;2023-04-03T00:29:49;4.70;99.90
23089;DHT22;11713;48.506;8.966;2023-04-03T00:32:15;4.70;99.90
23089;DHT22;11713;48.506;8.966;2023-04-03T00:34:42;4.80;99.90
23089;DHT22;11713;48.506;8.966;2023-04-03T00:37:07;4.80;99.90
23089;DHT22;11713;48.506;8.966;2023-04-03T00:39:33;4.80;99.90
23089;DHT22;11713;48.506;8.966;2023-04-03T00:41:59;4.70;99.90
23089;DHT22;11713;48.506;8.966;2023-04-03T00:47:02;4.70;99.90
23089;DHT22;11713;48.506;8.966;2023-04-03T00:49:29;4.80;99.90
23089;DHT22;11713;48.506;8.966;2023-04-03T00:51:56;4.80;99.90
23089;DHT22;11713;48.506;8.966;2023-04-03T00:54:23;4.90;99.90
23089;DHT22;11713;48.506;8.966;2023-04-03T00:56:51;4.80;99.90
23089;DHT22;11713;48.506;8.966;2023-04-03T00:59:25;4.80;99.90
23089;DHT22;11713;48.506;8.966;2023-04-03T01:01:56;4.70;99.90
23089;DHT22;11713;48.506;8.966;2023-04-03T01:04:42;4.70;99.90
23089;DHT22;11713;48.506;8.966;2023-04-03T01:07:21;4.70;99.90
23089;DHT22;11713;48.506;8.966;2023-04-03T01:09:49;4.80;99.90
23089;DHT22;11713;48.506;8.966;2023-04-03T01:12:20;4.80;99.90
23089;DHT22;11713;48.506;8.966;2023-04-03T01:14:50;4.80;99.90
23089;DHT22;11713;48.506;8.966;2023-04-03T01:25:36;4.70;99.90
23089;DHT22;11713;48.506;8.966;2023-04-03T01:28:04;4.70;99.90
23089;DHT22;11713;48.506;8.966;2023-04-03T01:30:35;4.70;99.90
23089;DHT22;11713;48.506;8.966;2023-04-03T01:33:05;4.60;99.90
23089;DHT22;11713;48.506;8.966;2023-04-03T01:35:32;4.60;99.90
23089;DHT22;11713;48.506;8.966;2023-04-03T01:37:58;4.60;99.90
23089;DHT22;11713;48.506;8.966;2023-04-03T01:40:24;4.50;99.90
23089;DHT22;11713;48.506;8.966;2023-04-03T01:42:50;4.50;99.90
23089;DHT22;11713;48.506;8.966;2023-04-03T01:45:16;4.40;99.90
23089;DHT22;11713;48.506;8.966;2023-04-03T01:47:42;4.40;99.90
23089;DHT22;11713;48.506;8.966;2023-04-03T01:50:09;4.40;99.90
23089;DHT22;11713;48.506;8.966;2023-04-03T01:52:35;4.40;99.90
23089;DHT22;11713;48.506;8.966;2023-04-03T01:55:01;4.40;99.90
23089;DHT22;11713;48.506;8.966;2023-04-03T01:57:27;4.30;99.90
23089;DHT22;11713;48.506;8.966;2023-04-03T01:59:53;4.30;99.90
23089;DHT22;11713;48.506;8.966;2023-04-03T02:02:19;4.30;99.90
23089;DHT22;11713;48.506;8.966;2023-04-03T02:04:46;4.20;99.90
23089;DHT22;11713;48.506;8.966;2023-04-03T02:07:12;4.20;99.90
23089;DHT22;11713;48.506;8.966;2023-04-03T02:09:38;4.20;99.90
23089;DHT22;11713;48.506;8.966;2023-04-03T02:12:04;4.20;99.90
23089;DHT22;11713;48.506;8.966;2023-04-03T02:14:31;4.30;99.90
23089;DHT22;11713;48.506;8.966;2023-04-03T02:16:57;4.30;99.90
23089;DHT22;11713;48.506;8.966;2023-04-03T02:19:23;4.30;99.90
23089;DHT22;11713;48.506;8.966;2023-04-03T02:21:49;4.20;99.90
23089;DHT22;11713;48.506;8.966;2023-04-03T02:24:15;4.20;99.90
23089;DHT22;11713;48.506;8.966;2023-04-03T02:26:41;4.20;99.90
23089;DHT22;11713;48.506;8.966;2023-04-03T02:29:07;4.30;99.90
23089;DHT22;11713;48.506;8.966;2023-04-03T02:31:34;4.40;99.90
23089;DHT22;11713;48.506;8.966;2023-04-03T02:34:02;4.30;99.90
23089;DHT22;11713;48.506;8.966;2023-04-03T02:36:28;4.40;99.90
23089;DHT22;11713;48.506;8.966;2023-04-03T02:38:58;4.30;99.90
23089;DHT22;11713;48.506;8.966;2023-04-03T02:41:24;4.40;99.90
23089;DHT22;11713;48.506;8.966;2023-04-03T02:43:55;4.40;99.90
23089;DHT22;11713;48.506;8.966;2023-04-03T02:46:21;4.40;99.90
23089;DHT22;11713;48.506;8.966;2023-04-03T02:48:46;4.40;99.90
23089;DHT22;11713;48.506;8.966;2023-04-03T02:51:13;4.40;99.90
23089;DHT22;11713;48.506;8.966;2023-04-03T02:53:39;4.40;99.90
23089;DHT22;11713;48.506;8.966;2023-04-03T02:56:11;4.50;99.90
23089;DHT22;11713;48.506;8.966;2023-04-03T02:58:37;4.50;99.90
23089;DHT22;11713;48.506;8.966;2023-04-03T03:01:04;4.50;99.90
23089;DHT22;11713;48.506;8.966;2023-04-03T03:03:30;4.50;99.90
23089;DHT22;11713;48.506;8.966;2023-04-03T03:06:13;4.50;99.90
23089;DHT22;11713;48.506;8.966;2023-04-03T03:08:39;4.50;99.90
23089;DHT22;11713;48.506;8.966;2023-04-03T03:11:06;4.50;99.90
23089;DHT22;11713;48.506;8.966;2023-04-03T03:13:32;4.50;99.90
23089;DHT22;11713;48.506;8.966;2023-04-03T03:15:59;4.50;99.90
23089;DHT22;11713;48.506;8.966;2023-04-03T03:18:25;4.50;99.90
23089;DHT22;11713;48.506;8.966;2023-04-03T03:20:52;4.50;99.90
23089;DHT22;11713;48.506;8.966;2023-04-03T03:23:19;4.50;99.90
23089;DHT22;11713;48.506;8.966;2023-04-03T03:25:45;4.50;99.90
23089;DHT22;11713;48.506;8.966;2023-04-03T03:28:11;4.50;99.90
23089;DHT22;11713;48.506;8.966;2023-04-03T03:30:37;4.50;99.90
23089;DHT22;11713;48.506;8.966;2023-04-03T03:33:03;4.50;99.90
23089;DHT22;11713;48.506;8.966;2023-04-03T03:35:29;4.50;99.90
23089;DHT22;11713;48.506;8.966;2023-04-03T03:37:55;4.60;99.90
23089;DHT22;11713;48.506;8.966;2023-04-03T03:40:22;4.50;99.90
23089;DHT22;11713;48.506;8.966;2023-04-03T03:42:48;4.50;99.90
23089;DHT22;11713;48.506;8.966;2023-04-03T03:45:14;4.50;99.90
23089;DHT22;11713;48.506;8.966;2023-04-03T03:47:41;4.50;99.90
23089;DHT22;11713;48.506;8.966;2023-04-03T03:50:08;4.50;99.90
23089;DHT22;11713;48.506;8.966;2023-04-03T03:52:34;4.50;99.90
23089;DHT22;11713;48.506;8.966;2023-04-03T03:55:00;4.50;99.90
23089;DHT22;11713;48.506;8.966;2023-04-03T03:57:26;4.40;99.90
23089;DHT22;11713;48.506;8.966;2023-04-03T03:59:54;4.40;99.90
23089;DHT22;11713;48.506;8.966;2023-04-03T04:02:21;4.30;99.90
23089;DHT22;11713;48.506;8.966;2023-04-03T04:04:47;4.20;99.90
23089;DHT22;11713;48.506;8.966;2023-04-03T04:07:14;4.20;99.90
23089;DHT22;11713;48.506;8.966;2023-04-03T04:09:40;4.10;99.90
23089;DHT22;11713;48.506;8.966;2023-04-03T04:12:08;4.20;99.90
23089;DHT22;11713;48.506;8.966;2023-04-03T04:14:34;4.20;99.90
23089;DHT22;11713;48.506;8.966;2023-04-03T04:17:01;4.30;99.90
23089;DHT22;11713;48.506;8.966;2023-04-03T04:19:28;4.20;99.90
23089;DHT22;11713;48.506;8.966;2023-04-03T04:21:54;4.20;99.90
23089;DHT22;11713;48.506;8.966;2023-04-03T04:24:21;4.30;99.90
23089;DHT22;11713;48.506;8.966;2023-04-03T04:26:50;4.20;99.90
23089;DHT22;11713;48.506;8.966;2023-04-03T04:29:17;4.30;99.90
23089;DHT22;11713;48.506;8.966;2023-04-03T04:31:46;4.30;99.90
23089;DHT22;11713;48.506;8.966;2023-04-03T04:34:12;4.30;99.90
23089;DHT22;11713;48.506;8.966;2023-04-03T04:36:39;4.40;99.90
23089;DHT22;11713;48.506;8.966;2023-04-03T04:39:05;4.30;99.90
23089;DHT22;11713;48.506;8.966;2023-04-03T04:41:31;4.30;99.90
23089;DHT22;11713;48.506;8.966;2023-04-03T04:43:58;4.30;99.90
23089;DHT22;11713;48.506;8.966;2023-04-03T04:46:26;4.30;99.90
23089;DHT22;11713;48.506;8.966;2023-04-03T04:48:56;4.30;99.90
23089;DHT22;11713;48.506;8.966;2023-04-03T04:51:25;4.30;99.90
23089;DHT22;11713;48.506;8.966;2023-04-03T04:53:55;4.30;99.90
23089;DHT22;11713;48.506;8.966;2023-04-03T04:56:22;4.20;99.90
23089;DHT22;11713;48.506;8.966;2023-04-03T04:59:25;4.20;99.90
23089;DHT22;11713;48.506;8.966;2023-04-03T05:02:16;4.30;99.90
23089;DHT22;11713;48.506;8.966;2023-04-03T05:04:43;4.30;99.90
23089;DHT22;11713;48.506;8.966;2023-04-03T05:07:16;4.30;99.90
23089;DHT22;11713;48.506;8.966;2023-04-03T05:09:46;4.20;99.90
23089;DHT22;11713;48.506;8.966;2023-04-03T05:12:13;4.20;99.90
23089;DHT22;11713;48.506;8.966;2023-04-03T05:14:46;4.30;99.90
23089;DHT22;11713;48.506;8.966;2023-04-03T05:17:12;4.30;99.90
23089;DHT22;11713;48.506;8.966;2023-04-03T05:19:42;4.30;99.90
23089;DHT22;11713;48.506;8.966;2023-04-03T05:22:09;4.30;99.90
23089;DHT22;11713;48.506;8.966;2023-04-03T05:24:35;4.30;99.90
23089;DHT22;11713;48.506;8.966;2023-04-03T05:27:02;4.30;99.90
23089;DHT22;11713;48.506;8.966;2023-04-03T05:29:29;4.30;99.90
23089;DHT22;11713;48.506;8.966;2023-04-03T05:31:57;4.40;99.90
23089;DHT22;11713;48.506;8.966;2023-04-03T05:34:24;4.40;99.90
23089;DHT22;11713;48.506;8.966;2023-04-03T05:36:52;4.30;99.90
23089;DHT22;11713;48.506;8.966;2023-04-03T05:39:19;4.30;99.90
23089;DHT22;11713;48.506;8.966;2023-04-03T05:41:46;4.20;99.90
23089;DHT22;11713;48.506;8.966;2023-04-03T05:44:12;4.20;99.90
23089;DHT22;11713;48.506;8.966;2023-04-03T05:46:38;4.20;99.90
23089;DHT22;11713;48.506;8.966;2023-04-03T05:49:07;4.20;99.90
23089;DHT22;11713;48.506;8.966;2023-04-03T05:51:36;4.20;99.90
23089;DHT22;11713;48.506;8.966;2023-04-03T05:54:27;4.30;99.90
23089;DHT22;11713;48.506;8.966;2023-04-03T05:57:00;4.30;99.90
23089;DHT22;11713;48.506;8.966;2023-04-03T05:59:26;4.30;99.90
23089;DHT22;11713;48.506;8.966;2023-04-03T06:01:55;4.40;99.90
23089;DHT22;11713;48.506;8.966;2023-04-03T06:04:21;4.40;99.90
23089;DHT22;11713;48.506;8.966;2023-04-03T06:06:53;4.40;99.90
23089;DHT22;11713;48.506;8.966;2023-04-03T06:09:50;4.40;99.90
23089;DHT22;11713;48.506;8.966;2023-04-03T06:13:40;4.40;99.90
23089;DHT22;11713;48.506;8.966;2023-04-03T06:20:21;4.50;99.90
23089;DHT22;11713;48.506;8.966;2023-04-03T06:23:51;4.60;99.90
23089;DHT22;11713;48.506;8.966;2023-04-03T06:26:17;4.60;99.90
23089;DHT22;11713;48.506;8.966;2023-04-03T06:28:43;4.70;99.90
23089;DHT22;11713;48.506;8.966;2023-04-03T06:31:09;4.70;99.90
23089;DHT22;11713;48.506;8.966;2023-04-03T06:33:35;4.70;99.90
23089;DHT22;11713;48.506;8.966;2023-04-03T06:36:04;4.70;99.90
23089;DHT22;11713;48.506;8.966;2023-04-03T06:38:31;4.80;99.90
23089;DHT22;11713;48.506;8.966;2023-04-03T06:40:56;4.80;99.90
23089;DHT22;11713;48.506;8.966;2023-04-03T06:43:22;4.80;99.90
23089;DHT22;11713;48.506;8.966;2023-04-03T06:45:48;4.80;99.90
23089;DHT22;11713;48.506;8.966;2023-04-03T06:48:14;4.90;99.90
23089;DHT22;11713;48.506;8.966;2023-04-03T06:50:41;4.90;99.90
23089;DHT22;11713;48.506;8.966;2023-04-03T06:53:09;4.90;99.90
23089;DHT22;11713;48.506;8.966;2023-04-03T06:55:35;4.90;99.90
23089;DHT22;11713;48.506;8.966;2023-04-03T06:58:02;4.90;99.90
23089;DHT22;11713;48.506;8.966;2023-04-03T07:00:29;5.00;99.90
23089;DHT22;11713;48.506;8.966;2023-04-03T07:02:55;5.00;99.90
23089;DHT22;11713;48.506;8.966;2023-04-03T07:05:24;4.90;99.90
23089;DHT22;11713;48.506;8.966;2023-04-03T07:07:50;4.90;99.90
23089;DHT22;11713;48.506;8.966;2023-04-03T07:10:16;5.00;99.90
23089;DHT22;11713;48.506;8.966;2023-04-03T07:12:42;5.00;99.90
23089;DHT22;11713;48.506;8.966;2023-04-03T07:15:09;5.10;99.90
23089;DHT22;11713;48.506;8.966;2023-04-03T07:17:35;5.10;99.90
23089;DHT22;11713;48.506;8.966;2023-04-03T07:20:02;5.20;99.90
23089;DHT22;11713;48.506;8.966;2023-04-03T07:22:30;5.30;99.90
23089;DHT22;11713;48.506;8.966;2023-04-03T07:24:56;5.20;99.90
23089;DHT22;11713;48.506;8.966;2023-04-03T07:27:22;5.20;99.90
23089;DHT22;11713;48.506;8.966;2023-04-03T07:29:48;5.20;99.90
23089;DHT22;11713;48.506;8.966;2023-04-03T07:32:14;5.30;99.90
23089;DHT22;11713;48.506;8.966;2023-04-03T07:34:40;5.40;99.90
23089;DHT22;11713;48.506;8.966;2023-04-03T07:37:06;5.40;99.90
23089;DHT22;11713;48.506;8.966;2023-04-03T07:39:33;5.40;99.90
23089;DHT22;11713;48.506;8.966;2023-04-03T07:41:58;5.40;99.90
23089;DHT22;11713;48.506;8.966;2023-04-03T07:44:25;5.30;99.90
23089;DHT22;11713;48.506;8.966;2023-04-03T07:46:51;5.40;99.90
23089;DHT22;11713;48.506;8.966;2023-04-03T07:49:17;5.50;99.90
23089;DHT22;11713;48.506;8.966;2023-04-03T07:51:44;5.50;99.90
23089;DHT22;11713;48.506;8.966;2023-04-03T07:54:11;5.60;99.90
23089;DHT22;11713;48.506;8.966;2023-04-03T07:56:36;5.70;99.90
23089;DHT22;11713;48.506;8.966;2023-04-03T07:59:02;5.90;99.90
23089;DHT22;11713;48.506;8.966;2023-04-03T08:01:28;5.90;99.90
23089;DHT22;11713;48.506;8.966;2023-04-03T08:03:58;5.90;99.90
23089;DHT22;11713;48.506;8.966;2023-04-03T08:06:23;5.80;99.90
23089;DHT22;11713;48.506;8.966;2023-04-03T08:08:49;5.90;99.90
23089;DHT22;11713;48.506;8.966;2023-04-03T08:11:15;5.90;99.90
23089;DHT22;11713;48.506;8.966;2023-04-03T08:13:41;6.10;99.90
23089;DHT22;11713;48.506;8.966;2023-04-03T08:16:18;6.20;99.90
23089;DHT22;11713;48.506;8.966;2023-04-03T08:18:47;6.30;99.90
23089;DHT22;11713;48.506;8.966;2023-04-03T08:21:14;6.30;99.90
23089;DHT22;11713;48.506;8.966;2023-04-03T08:23:47;6.30;99.90
23089;DHT22;11713;48.506;8.966;2023-04-03T08:26:15;6.40;99.90
23089;DHT22;11713;48.506;8.966;2023-04-03T08:28:43;6.50;99.90
23089;DHT22;11713;48.506;8.966;2023-04-03T08:31:15;6.60;99.90
23089;DHT22;11713;48.506;8.966;2023-04-03T08:33:41;6.70;99.90
23089;DHT22;11713;48.506;8.966;2023-04-03T08:36:20;6.80;99.90
23089;DHT22;11713;48.506;8.966;2023-04-03T08:38:48;6.90;99.90
23089;DHT22;11713;48.506;8.966;2023-04-03T08:41:34;7.00;99.90
23089;DHT22;11713;48.506;8.966;2023-04-03T08:49:47;7.20;99.90
23089;DHT22;11713;48.506;8.966;2023-04-03T08:53:19;7.20;99.90
23089;DHT22;11713;48.506;8.966;2023-04-03T08:55:40;7.20;99.90
23089;DHT22;11713;48.506;8.966;2023-04-03T09:01:01;7.20;99.90
23089;DHT22;11713;48.506;8.966;2023-04-03T09:03:36;7.10;99.90
23089;DHT22;11713;48.506;8.966;2023-04-03T09:06:13;7.10;99.90
23089;DHT22;11713;48.506;8.966;2023-04-03T09:14:01;7.00;99.90
23089;DHT22;11713;48.506;8.966;2023-04-03T09:19:41;7.20;99.90
23089;DHT22;11713;48.506;8.966;2023-04-03T09:22:18;7.40;99.90
23089;DHT22;11713;48.506;8.966;2023-04-03T09:24:49;7.50;99.90
23089;DHT22;11713;48.506;8.966;2023-04-03T09:27:16;7.50;99.90
23089;DHT22;11713;48.506;8.966;2023-04-03T09:29:43;7.30;99.90
23089;DHT22;11713;48.506;8.966;2023-04-03T09:32:27;7.40;99.90
23089;DHT22;11713;48.506;8.966;2023-04-03T09:34:59;7.50;99.90
23089;DHT22;11713;48.506;8.966;2023-04-03T09:37:42;7.40;99.90
23089;DHT22;11713;48.506;8.966;2023-04-03T09:40:31;7.40;99.90
23089;DHT22;11713;48.506;8.966;2023-04-03T09:43:09;7.70;99.90
23089;DHT22;11713;48.506;8.966;2023-04-03T09:45:46;7.80;99.90
23089;DHT22;11713;48.506;8.966;2023-04-03T09:51:01;7.80;99.90
23089;DHT22;11713;48.506;8.966;2023-04-03T09:55:56;7.90;99.90
23089;DHT22;11713;48.506;8.966;2023-04-03T09:58:31;8.10;99.90
23089;DHT22;11713;48.506;8.966;2023-04-03T10:01:01;8.10;99.90
23089;DHT22;11713;48.506;8.966;2023-04-03T10:03:32;8.10;99.90
23089;DHT22;11713;48.506;8.966;2023-04-03T10:06:00;8.10;99.90
23089;DHT22;11713;48.506;8.966;2023-04-03T10:08:32;8.20;99.90
23089;DHT22;11713;48.506;8.966;2023-04-03T10:11:08;8.00;99.90
23089;DHT22;11713;48.506;8.966;2023-04-03T10:13:42;8.10;99.90
23089;DHT22;11713;48.506;8.966;2023-04-03T10:16:17;8.20;99.90
23089;DHT22;11713;48.506;8.966;2023-04-03T10:19:09;8.10;99.90
23089;DHT22;11713;48.506;8.966;2023-04-03T10:26:58;8.20;99.90
23089;DHT22;11713;48.506;8.966;2023-04-03T10:29:31;8.20;99.90
23089;DHT22;11713;48.506;8.966;2023-04-03T10:32:17;8.20;99.90
23089;DHT22;11713;48.506;8.966;2023-04-03T10:34:53;8.10;99.90
23089;DHT22;11713;48.506;8.966;2023-04-03T10:37:30;8.00;99.90
23089;DHT22;11713;48.506;8.966;2023-04-03T10:40:12;8.10;99.90
23089;DHT22;11713;48.506;8.966;2023-04-03T10:43:08;8.10;99.90
23089;DHT22;11713;48.506;8.966;2023-04-03T10:54:11;8.50;99.90
23089;DHT22;11713;48.506;8.966;2023-04-03T10:56:55;8.50;99.90
23089;DHT22;11713;48.506;8.966;2023-04-03T10:59:46;8.60;99.90
23089;DHT22;11713;48.506;8.966;2023-04-03T11:04:53;8.60;99.90
23089;DHT22;11713;48.506;8.966;2023-04-03T11:07:26;8.70;99.90
23089;DHT22;11713;48.506;8.966;2023-04-03T11:09:57;8.70;99.90
23089;DHT22;11713;48.506;8.966;2023-04-03T11:12:40;8.70;99.90
23089;DHT22;11713;48.506;8.966;2023-04-03T11:15:16;8.70;99.90
23089;DHT22;11713;48.506;8.966;2023-04-03T11:18:09;8.60;99.90
23089;DHT22;11713;48.506;8.966;2023-04-03T11:20:37;8.70;99.90
23089;DHT22;11713;48.506;8.966;2023-04-03T11:23:24;8.80;99.90
23089;DHT22;11713;48.506;8.966;2023-04-03T11:25:59;8.80;99.90
23089;DHT22;11713;48.506;8.966;2023-04-03T11:28:27;8.80;99.90
23089;DHT22;11713;48.506;8.966;2023-04-03T11:36:29;8.50;99.90
23089;DHT22;11713;48.506;8.966;2023-04-03T11:39:00;8.40;99.90
23089;DHT22;11713;48.506;8.966;2023-04-03T11:41:31;8.20;99.90
23089;DHT22;11713;48.506;8.966;2023-04-03T11:44:04;8.20;99.90
23089;DHT22;11713;48.506;8.966;2023-04-03T11:47:10;8.30;99.90
23089;DHT22;11713;48.506;8.966;2023-04-03T11:49:59;8.60;99.90
23089;DHT22;11713;48.506;8.966;2023-04-03T12:16:20;8.40;99.90
23089;DHT22;11713;48.506;8.966;2023-04-03T12:24:27;8.10;99.90
23089;DHT22;11713;48.506;8.966;2023-04-03T12:29:25;8.10;99.90
23089;DHT22;11713;48.506;8.966;2023-04-03T12:51:15;8.20;99.90
23089;DHT22;11713;48.506;8.966;2023-04-03T12:53:54;8.10;99.90
23089;DHT22;11713;48.506;8.966;2023-04-03T12:56:27;8.00;99.90
23089;DHT22;11713;48.506;8.966;2023-04-03T12:58:55;8.10;99.90
23089;DHT22;11713;48.506;8.966;2023-04-03T13:01:25;8.20;99.90
23089;DHT22;11713;48.506;8.966;2023-04-03T13:03:57;8.30;99.90
23089;DHT22;11713;48.506;8.966;2023-04-03T13:06:43;8.30;99.90
23089;DHT22;11713;48.506;8.966;2023-04-03T13:09:36;8.40;99.90
23089;DHT22;11713;48.506;8.966;2023-04-03T13:12:14;8.50;99.90
23089;DHT22;11713;48.506;8.966;2023-04-03T13:14:54;8.40;99.90
23089;DHT22;11713;48.506;8.966;2023-04-03T13:17:21;8.30;99.90
23089;DHT22;11713;48.506;8.966;2023-04-03T13:19:47;8.30;99.90
23089;DHT22;11713;48.506;8.966;2023-04-03T13:22:36;8.20;99.90
23089;DHT22;11713;48.506;8.966;2023-04-03T13:25:11;8.30;99.90
23089;DHT22;11713;48.506;8.966;2023-04-03T13:27:40;8.20;99.90
23089;DHT22;11713;48.506;8.966;2023-04-03T13:30:30;8.30;99.90
23089;DHT22;11713;48.506;8.966;2023-04-03T13:33:05;8.40;99.90
23089;DHT22;11713;48.506;8.966;2023-04-03T13:35:44;8.50;99.90
23089;DHT22;11713;48.506;8.966;2023-04-03T13:40:55;8.30;99.90
23089;DHT22;11713;48.506;8.966;2023-04-03T13:43:26;8.30;99.90
23089;DHT22;11713;48.506;8.966;2023-04-03T13:46:20;8.50;99.90
23089;DHT22;11713;48.506;8.966;2023-04-03T13:48:51;8.50;99.90
23089;DHT22;11713;48.506;8.966;2023-04-03T13:51:27;8.60;99.90
23089;DHT22;11713;48.506;8.966;2023-04-03T13:54:00;8.60;99.90
23089;DHT22;11713;48.506;8.966;2023-04-03T13:56:37;8.70;99.90
23089;DHT22;11713;48.506;8.966;2023-04-03T14:01:54;8.60;99.90
23089;DHT22;11713;48.506;8.966;2023-04-03T14:04:29;8.60;99.90
23089;DHT22;11713;48.506;8.966;2023-04-03T14:06:55;8.70;99.90
23089;DHT22;11713;48.506;8.966;2023-04-03T14:09:23;8.60;99.90
23089;DHT22;11713;48.506;8.966;2023-04-03T14:11:52;8.50;99.90
23089;DHT22;11713;48.506;8.966;2023-04-03T14:14:22;8.60;99.90
23089;DHT22;11713;48.506;8.966;2023-04-03T14:16:53;8.60;99.90
23089;DHT22;11713;48.506;8.966;2023-04-03T14:19:26;8.60;99.90
23089;DHT22;11713;48.506;8.966;2023-04-03T14:21:53;8.70;99.90
23089;DHT22;11713;48.506;8.966;2023-04-03T14:24:20;8.80;99.90
23089;DHT22;11713;48.506;8.966;2023-04-03T14:26:49;8.90;99.90
23089;DHT22;11713;48.506;8.966;2023-04-03T14:29:18;8.90;99.90
23089;DHT22;11713;48.506;8.966;2023-04-03T14:31:46;8.90;99.90
23089;DHT22;11713;48.506;8.966;2023-04-03T14:34:14;8.90;99.90
23089;DHT22;11713;48.506;8.966;2023-04-03T14:36:44;8.90;99.90
23089;DHT22;11713;48.506;8.966;2023-04-03T14:39:17;8.80;99.90
23089;DHT22;11713;48.506;8.966;2023-04-03T14:41:44;8.80;99.90
23089;DHT22;11713;48.506;8.966;2023-04-03T14:44:10;8.70;99.90
23089;DHT22;11713;48.506;8.966;2023-04-03T14:46:39;8.60;99.90
23089;DHT22;11713;48.506;8.966;2023-04-03T14:49:28;8.70;99.90
23089;DHT22;11713;48.506;8.966;2023-04-03T14:51:58;8.60;99.90
23089;DHT22;11713;48.506;8.966;2023-04-03T14:54:24;8.50;99.90
23089;DHT22;11713;48.506;8.966;2023-04-03T14:56:57;8.50;99.90
23089;DHT22;11713;48.506;8.966;2023-04-03T14:59:23;8.20;99.90
23089;DHT22;11713;48.506;8.966;2023-04-03T15:01:50;8.00;99.90
23089;DHT22;11713;48.506;8.966;2023-04-03T15:04:18;8.00;99.90
23089;DHT22;11713;48.506;8.966;2023-04-03T15:06:47;8.00;99.90
23089;DHT22;11713;48.506;8.966;2023-04-03T15:09:24;7.90;99.90
23089;DHT22;11713;48.506;8.966;2023-04-03T15:11:54;7.90;99.90
23089;DHT22;11713;48.506;8.966;2023-04-03T15:14:20;8.10;99.90
23089;DHT22;11713;48.506;8.966;2023-04-03T15:16:46;8.20;99.90
23089;DHT22;11713;48.506;8.966;2023-04-03T15:19:13;8.20;99.90
23089;DHT22;11713;48.506;8.966;2023-04-03T15:21:41;8.10;99.90
23089;DHT22;11713;48.506;8.966;2023-04-03T15:24:08;8.10;99.90
23089;DHT22;11713;48.506;8.966;2023-04-03T15:26:34;8.10;99.90
23089;DHT22;11713;48.506;8.966;2023-04-03T15:29:01;8.10;99.90
23089;DHT22;11713;48.506;8.966;2023-04-03T15:31:28;8.10;99.90
23089;DHT22;11713;48.506;8.966;2023-04-03T15:33:54;8.10;99.90
23089;DHT22;11713;48.506;8.966;2023-04-03T15:36:21;8.10;99.90
23089;DHT22;11713;48.506;8.966;2023-04-03T15:38:48;8.10;99.90
23089;DHT22;11713;48.506;8.966;2023-04-03T15:41:15;8.00;99.90
23089;DHT22;11713;48.506;8.966;2023-04-03T15:43:42;8.00;99.90
23089;DHT22;11713;48.506;8.966;2023-04-03T15:46:08;8.00;99.90
23089;DHT22;11713;48.506;8.966;2023-04-03T15:48:36;7.80;99.90
23089;DHT22;11713;48.506;8.966;2023-04-03T15:51:02;7.90;99.90
23089;DHT22;11713;48.506;8.966;2023-04-03T15:53:29;8.00;99.90
23089;DHT22;11713;48.506;8.966;2023-04-03T15:55:55;8.00;99.90
23089;DHT22;11713;48.506;8.966;2023-04-03T15:58:21;7.70;99.90
23089;DHT22;11713;48.506;8.966;2023-04-03T16:00:47;7.60;99.90
23089;DHT22;11713;48.506;8.966;2023-04-03T16:03:16;7.70;99.90
23089;DHT22;11713;48.506;8.966;2023-04-03T16:05:44;7.80;99.90
23089;DHT22;11713;48.506;8.966;2023-04-03T16:08:12;7.80;99.90
23089;DHT22;11713;48.506;8.966;2023-04-03T16:10:38;7.80;99.90
23089;DHT22;11713;48.506;8.966;2023-04-03T16:13:05;7.80;99.90
23089;DHT22;11713;48.506;8.966;2023-04-03T16:15:34;7.80;99.90
23089;DHT22;11713;48.506;8.966;2023-04-03T16:18:01;7.60;99.90
23089;DHT22;11713;48.506;8.966;2023-04-03T16:20:27;7.50;99.90
23089;DHT22;11713;48.506;8.966;2023-04-03T16:22:53;7.50;99.90
23089;DHT22;11713;48.506;8.966;2023-04-03T16:25:21;7.40;99.90
23089;DHT22;11713;48.506;8.966;2023-04-03T16:27:47;7.20;99.90
23089;DHT22;11713;48.506;8.966;2023-04-03T16:30:13;7.20;99.90
23089;DHT22;11713;48.506;8.966;2023-04-03T16:32:40;7.20;99.90
23089;DHT22;11713;48.506;8.966;2023-04-03T16:35:06;7.20;99.90
23089;DHT22;11713;48.506;8.966;2023-04-03T16:37:40;7.30;99.90
23089;DHT22;11713;48.506;8.966;2023-04-03T16:40:08;7.40;99.90
23089;DHT22;11713;48.506;8.966;2023-04-03T16:42:34;7.40;99.90
23089;DHT22;11713;48.506;8.966;2023-04-03T16:45:00;7.40;99.90
23089;DHT22;11713;48.506;8.966;2023-04-03T16:47:29;7.40;99.90
23089;DHT22;11713;48.506;8.966;2023-04-03T16:49:55;7.50;99.90
23089;DHT22;11713;48.506;8.966;2023-04-03T16:52:21;7.50;99.90
23089;DHT22;11713;48.506;8.966;2023-04-03T16:54:47;7.50;99.90
23089;DHT22;11713;48.506;8.966;2023-04-03T16:57:12;7.50;99.90
23089;DHT22;11713;48.506;8.966;2023-04-03T16:59:38;7.40;99.90
23089;DHT22;11713;48.506;8.966;2023-04-03T17:02:04;7.30;99.90
23089;DHT22;11713;48.506;8.966;2023-04-03T17:04:30;7.30;99.90
23089;DHT22;11713;48.506;8.966;2023-04-03T17:06:56;7.10;99.90
23089;DHT22;11713;48.506;8.966;2023-04-03T17:09:22;6.90;99.90
23089;DHT22;11713;48.506;8.966;2023-04-03T17:11:48;6.80;99.90
23089;DHT22;11713;48.506;8.966;2023-04-03T17:14:14;6.80;99.90
23089;DHT22;11713;48.506;8.966;2023-04-03T17:16:40;6.70;99.90
23089;DHT22;11713;48.506;8.966;2023-04-03T17:19:06;6.70;99.90
23089;DHT22;11713;48.506;8.966;2023-04-03T17:21:33;6.60;99.90
23089;DHT22;11713;48.506;8.966;2023-04-03T17:24:02;6.60;99.90
23089;DHT22;11713;48.506;8.966;2023-04-03T17:26:29;6.60;99.90
23089;DHT22;11713;48.506;8.966;2023-04-03T17:28:55;6.60;99.90
23089;DHT22;11713;48.506;8.966;2023-04-03T17:31:22;6.50;99.90
23089;DHT22;11713;48.506;8.966;2023-04-03T17:33:47;6.60;99.90
23089;DHT22;11713;48.506;8.966;2023-04-03T17:36:13;6.60;99.90
23089;DHT22;11713;48.506;8.966;2023-04-03T17:38:39;6.60;99.90
23089;DHT22;11713;48.506;8.966;2023-04-03T17:41:07;6.50;99.90
23089;DHT22;11713;48.506;8.966;2023-04-03T17:43:34;6.50;99.90
23089;DHT22;11713;48.506;8.966;2023-04-03T17:46:08;6.50;99.90
23089;DHT22;11713;48.506;8.966;2023-04-03T17:48:37;6.40;99.90
23089;DHT22;11713;48.506;8.966;2023-04-03T17:51:05;6.30;99.90
23089;DHT22;11713;48.506;8.966;2023-04-03T17:53:31;6.20;99.90
23089;DHT22;11713;48.506;8.966;2023-04-03T17:55:57;6.20;99.90
23089;DHT22;11713;48.506;8.966;2023-04-03T17:58:22;6.20;99.90